Time;durP1;ratioP1;P1;durP2;ratioP2;P2;SDS_P1;SDS_P2;PMS_P1;PMS_P2;Temp;Humidity;BMP_temperature;BMP_pressure;BME280_temperature;BME280_humidity;BME280_pressure;Samples;Min_cycle;Max_cycle;Signal;HPM_P1;HPM_P2
2022/03/19 00:02:25;;;;;;;15.63;2.50;;;3.70;99.90;;;;;;6176932;23;20021;-36
2022/03/19 00:04:53;;;;;;;13.63;2.40;;;3.60;99.90;;;;;;6204591;23;20027;-34
2022/03/19 00:07:19;;;;;;;11.60;2.47;;;3.60;99.90;;;;;;6186437;23;20095;-36
2022/03/19 00:09:45;;;;;;;12.77;2.97;;;3.60;99.90;;;;;;6204119;23;20020;-36
2022/03/19 00:12:14;;;;;;;15.43;2.73;;;3.50;99.90;;;;;;6202526;23;20059;-33
2022/03/19 00:14:44;;;;;;;15.37;2.67;;;3.50;99.90;;;;;;6204511;23;20056;-35
2022/03/19 00:17:10;;;;;;;13.20;2.60;;;3.50;99.90;;;;;;6186922;23;20020;-35
2022/03/19 00:19:39;;;;;;;11.07;2.70;;;3.40;99.90;;;;;;6205808;23;20027;-36
2022/03/19 00:22:06;;;;;;;11.97;2.70;;;3.40;99.90;;;;;;6205426;23;20198;-34
2022/03/19 00:24:32;;;;;;;14.03;2.50;;;3.40;99.90;;;;;;6206983;23;20074;-35
2022/03/19 00:26:58;;;;;;;18.67;3.10;;;3.30;99.90;;;;;;6185899;23;20321;-33
2022/03/19 00:29:24;;;;;;;10.70;2.93;;;3.30;99.90;;;;;;6203714;23;20532;-36
2022/03/19 00:31:49;;;;;;;14.67;2.70;;;3.30;99.90;;;;;;6206754;23;20075;-33
2022/03/19 00:34:15;;;;;;;21.50;2.87;;;3.20;99.90;;;;;;6206267;23;20035;-35
2022/03/19 00:36:42;;;;;;;11.13;2.93;;;3.20;99.90;;;;;;6189495;23;20648;-33
2022/03/19 00:39:08;;;;;;;10.00;2.40;;;3.20;99.90;;;;;;6206112;23;20554;-36
2022/03/19 00:41:34;;;;;;;15.63;2.93;;;3.20;99.90;;;;;;6204225;23;20021;-35
2022/03/19 00:43:59;;;;;;;9.83;2.63;;;3.10;99.90;;;;;;6205853;23;20086;-34
2022/03/19 00:46:25;;;;;;;9.33;2.03;;;3.10;99.90;;;;;;6191264;23;20017;-34
2022/03/19 00:48:51;;;;;;;14.10;2.90;;;3.10;99.90;;;;;;6203739;23;20576;-35
2022/03/19 00:51:17;;;;;;;10.03;2.60;;;3.10;99.90;;;;;;6206715;23;20227;-34
2022/03/19 00:53:42;;;;;;;13.33;2.40;;;3.00;99.90;;;;;;6207207;23;20356;-35
2022/03/19 00:56:08;;;;;;;13.77;2.40;;;3.00;99.90;;;;;;6200201;23;20021;-36
2022/03/19 00:58:34;;;;;;;17.43;2.87;;;3.00;99.90;;;;;;6195879;23;20423;-33
2022/03/19 01:00:59;;;;;;;14.07;2.60;;;3.10;99.90;;;;;;6205980;23;20025;-34
2022/03/19 01:03:25;;;;;;;14.47;2.40;;;3.00;99.90;;;;;;6207062;23;20410;-35
2022/03/19 01:05:51;;;;;;;18.47;2.63;;;2.90;99.90;;;;;;6206755;23;20372;-35
2022/03/19 01:08:16;;;;;;;12.47;2.60;;;2.90;99.90;;;;;;6188225;23;20025;-33
2022/03/19 01:10:42;;;;;;;13.80;2.33;;;2.90;99.90;;;;;;6208482;23;20017;-36
2022/03/19 01:13:09;;;;;;;12.60;2.53;;;2.90;99.90;;;;;;6206956;23;20452;-32
2022/03/19 01:15:35;;;;;;;13.07;2.57;;;2.80;99.90;;;;;;6207594;23;20330;-33
2022/03/19 01:18:01;;;;;;;18.33;3.03;;;2.80;99.90;;;;;;6188378;23;20048;-35
2022/03/19 01:20:27;;;;;;;14.07;2.70;;;2.80;99.90;;;;;;6208342;23;20017;-32
2022/03/19 01:22:53;;;;;;;12.73;2.83;;;2.70;99.90;;;;;;6206980;23;20127;-35
2022/03/19 01:25:19;;;;;;;16.40;2.80;;;2.70;99.90;;;;;;6208182;23;20019;-36
2022/03/19 01:27:48;;;;;;;13.80;2.37;;;2.70;99.90;;;;;;6188395;23;20108;-35
2022/03/19 01:30:19;;;;;;;16.30;2.53;;;2.70;99.90;;;;;;6207729;23;20016;-35
2022/03/19 01:32:46;;;;;;;8.20;2.15;;;2.60;99.90;;;;;;6207920;23;20020;-34
2022/03/19 01:35:13;;;;;;;22.73;3.03;;;2.60;99.90;;;;;;6207299;23;20016;-33
2022/03/19 01:37:39;;;;;;;12.37;2.67;;;2.60;99.90;;;;;;6188796;23;20020;-36
2022/03/19 01:40:07;;;;;;;14.73;2.87;;;2.50;99.90;;;;;;6205672;23;20027;-33
2022/03/19 01:42:37;;;;;;;20.57;3.37;;;2.50;99.90;;;;;;6207304;23;20040;-34
2022/03/19 01:45:05;;;;;;;15.23;3.37;;;2.50;99.90;;;;;;6207375;23;20056;-35
2022/03/19 01:47:31;;;;;;;15.03;2.77;;;2.50;99.90;;;;;;6187472;23;20047;-35
2022/03/19 01:49:57;;;;;;;10.83;2.63;;;2.50;99.90;;;;;;6207953;23;20017;-35
2022/03/19 01:52:23;;;;;;;17.73;3.40;;;2.50;99.90;;;;;;6205133;23;20026;-35
2022/03/19 01:54:50;;;;;;;9.40;2.53;;;2.40;99.90;;;;;;6207517;23;20020;-32
2022/03/19 01:57:22;;;;;;;11.63;2.63;;;2.40;99.90;;;;;;6187126;23;20016;-32
2022/03/19 01:59:48;;;;;;;24.33;3.85;;;2.40;99.90;;;;;;6207366;23;20471;-33
2022/03/19 02:02:14;;;;;;;15.23;2.87;;;2.40;99.90;;;;;;6207381;23;20021;-35
2022/03/19 02:04:41;;;;;;;14.50;3.33;;;2.40;99.90;;;;;;6207601;23;20071;-35
2022/03/19 02:07:09;;;;;;;14.40;3.30;;;2.40;99.90;;;;;;6187639;23;20024;-35
2022/03/19 02:09:36;;;;;;;15.30;3.27;;;2.40;99.90;;;;;;6207145;23;20021;-35
2022/03/19 02:12:03;;;;;;;13.60;3.07;;;2.30;99.90;;;;;;6206001;23;20021;-34
2022/03/19 02:14:32;;;;;;;14.67;3.17;;;2.30;99.90;;;;;;6204809;23;20024;-36
2022/03/19 02:17:00;;;;;;;12.73;2.97;;;2.30;99.90;;;;;;6188935;23;20021;-36
2022/03/19 02:19:25;;;;;;;18.40;3.20;;;2.30;99.90;;;;;;6205576;23;20029;-32
2022/03/19 02:21:51;;;;;;;13.50;2.93;;;2.30;99.90;;;;;;6207270;23;20079;-35
2022/03/19 02:27:02;;;;;;;18.60;3.17;;;2.30;99.90;;;;;;6188420;23;20046;-35
2022/03/19 02:29:28;;;;;;;16.83;3.03;;;2.20;99.90;;;;;;6205681;23;20044;-35
2022/03/19 02:31:57;;;;;;;9.83;2.53;;;2.20;99.90;;;;;;6207389;23;20448;-38
2022/03/19 02:34:23;;;;;;;14.10;3.50;;;2.20;99.90;;;;;;6206367;23;20325;-34
2022/03/19 02:36:49;;;;;;;18.77;3.13;;;2.20;99.90;;;;;;6188472;23;20020;-35
2022/03/19 02:39:19;;;;;;;21.03;3.57;;;2.10;99.90;;;;;;6205617;23;20089;-35
2022/03/19 02:41:49;;;;;;;12.37;2.23;;;2.10;99.90;;;;;;6207834;23;20114;-36
2022/03/19 02:44:16;;;;;;;11.10;2.33;;;2.10;99.90;;;;;;6204223;23;20020;-36
2022/03/19 02:46:51;;;;;;;15.33;3.40;;;2.10;99.90;;;;;;6190197;23;20028;-33
2022/03/19 02:49:17;;;;;;;12.90;2.57;;;2.20;99.90;;;;;;6204560;23;20020;-35
2022/03/19 02:51:46;;;;;;;15.80;2.90;;;2.10;99.90;;;;;;6206956;23;20023;-36
2022/03/19 02:54:16;;;;;;;15.00;3.37;;;2.00;99.90;;;;;;6205918;23;20535;-35
2022/03/19 02:56:43;;;;;;;12.93;3.10;;;2.00;99.90;;;;;;6190212;23;20075;-36
2022/03/19 02:59:20;;;;;;;20.10;3.90;;;2.00;99.90;;;;;;6205926;23;20025;-35
2022/03/19 03:01:48;;;;;;;18.47;3.57;;;2.00;99.90;;;;;;6207306;23;20028;-35
2022/03/19 03:04:14;;;;;;;15.10;3.53;;;2.00;99.90;;;;;;6206523;23;20479;-34
2022/03/19 03:06:45;;;;;;;16.77;4.10;;;2.00;99.90;;;;;;6187631;23;20024;-34
2022/03/19 03:09:11;;;;;;;17.50;4.13;;;2.00;99.90;;;;;;6205784;23;20453;-35
2022/03/19 03:11:38;;;;;;;16.63;3.77;;;1.90;99.90;;;;;;6205099;23;20024;-34
2022/03/19 03:14:05;;;;;;;17.93;3.50;;;1.90;99.90;;;;;;6205428;23;20480;-36
2022/03/19 03:16:32;;;;;;;15.40;3.87;;;1.90;99.90;;;;;;6190042;23;20038;-33
2022/03/19 03:19:02;;;;;;;23.07;4.40;;;1.90;99.90;;;;;;6204330;23;20020;-36
2022/03/19 03:21:28;;;;;;;19.57;3.53;;;1.90;99.90;;;;;;6205533;23;20075;-35
2022/03/19 03:23:55;;;;;;;17.00;4.20;;;1.90;99.90;;;;;;6203372;23;20031;-36
2022/03/19 03:26:21;;;;;;;19.47;4.33;;;1.90;99.90;;;;;;6193295;23;20141;-32
2022/03/19 03:28:47;;;;;;;13.47;3.80;;;1.90;99.90;;;;;;6202569;23;20024;-36
2022/03/19 03:31:12;;;;;;;17.60;3.67;;;1.90;99.90;;;;;;6206427;23;20016;-35
2022/03/19 03:33:38;;;;;;;18.37;4.47;;;1.90;99.90;;;;;;6206194;23;20039;-36
2022/03/19 03:36:04;;;;;;;18.07;4.50;;;1.80;99.90;;;;;;6203869;23;20448;-35
2022/03/19 03:38:31;;;;;;;16.40;4.90;;;1.80;99.90;;;;;;6186981;23;20017;-36
2022/03/19 03:40:57;;;;;;;22.03;4.63;;;1.80;99.90;;;;;;6206624;23;20465;-34
2022/03/19 03:43:22;;;;;;;15.57;4.17;;;1.80;99.90;;;;;;6205944;23;20058;-35
2022/03/19 03:45:48;;;;;;;22.73;4.60;;;1.80;99.90;;;;;;6204952;23;20071;-35
2022/03/19 03:48:14;;;;;;;16.57;4.47;;;1.70;99.90;;;;;;6187099;23;20429;-37
2022/03/19 03:50:40;;;;;;;19.97;4.27;;;1.70;99.90;;;;;;6206799;23;20305;-36
2022/03/19 03:53:07;;;;;;;12.80;4.23;;;1.70;99.90;;;;;;6205512;23;20024;-35
2022/03/19 03:55:34;;;;;;;16.43;3.83;;;1.70;99.90;;;;;;6207010;23;20020;-35
2022/03/19 03:58:01;;;;;;;15.13;4.30;;;1.70;99.90;;;;;;6184781;23;20035;-35
2022/03/19 04:00:27;;;;;;;15.33;4.63;;;1.70;99.90;;;;;;6204470;23;20103;-36
2022/03/19 04:02:53;;;;;;;16.87;4.73;;;1.60;99.90;;;;;;6205933;23;20028;-36
2022/03/19 04:05:19;;;;;;;18.23;4.90;;;1.70;99.90;;;;;;6205077;23;20021;-33
2022/03/19 04:07:45;;;;;;;19.27;4.97;;;1.70;99.90;;;;;;6186883;23;20163;-35
2022/03/19 04:10:11;;;;;;;17.83;5.07;;;1.70;99.90;;;;;;6206536;23;20155;-36
2022/03/19 04:12:38;;;;;;;15.63;4.60;;;1.60;99.90;;;;;;6206363;23;20020;-35
2022/03/19 04:15:05;;;;;;;21.23;4.90;;;1.60;99.90;;;;;;6204140;23;20095;-36
2022/03/19 04:17:31;;;;;;;16.43;4.67;;;1.60;99.90;;;;;;6186658;23;20076;-36
2022/03/19 04:19:57;;;;;;;23.03;4.90;;;1.60;99.90;;;;;;6207411;23;20013;-35
2022/03/19 04:22:23;;;;;;;19.57;5.20;;;1.60;99.90;;;;;;6205939;23;20391;-36
2022/03/19 04:24:49;;;;;;;21.30;5.00;;;1.60;99.90;;;;;;6209061;23;20352;-35
2022/03/19 04:27:15;;;;;;;21.03;5.53;;;1.60;99.90;;;;;;6189116;23;20165;-34
2022/03/19 04:29:41;;;;;;;18.93;5.37;;;1.60;99.90;;;;;;6207541;23;20044;-35
2022/03/19 04:32:08;;;;;;;23.40;5.17;;;1.60;99.90;;;;;;6207280;23;20587;-36
2022/03/19 04:34:34;;;;;;;19.70;5.30;;;1.60;99.90;;;;;;6208969;23;20017;-35
2022/03/19 04:36:59;;;;;;;20.13;5.67;;;1.50;99.90;;;;;;6186744;23;20035;-35
2022/03/19 04:39:25;;;;;;;21.53;5.33;;;1.50;99.90;;;;;;6208091;23;20016;-35
2022/03/19 04:41:51;;;;;;;19.90;5.37;;;1.50;99.90;;;;;;6208785;23;20013;-35
2022/03/19 04:44:16;;;;;;;16.93;4.90;;;1.50;99.90;;;;;;6207914;23;20060;-36
2022/03/19 04:46:43;;;;;;;17.93;5.40;;;1.50;99.90;;;;;;6190198;23;20063;-36
2022/03/19 04:49:09;;;;;;;19.13;5.03;;;1.50;99.90;;;;;;6204820;23;20028;-35
2022/03/19 04:51:38;;;;;;;25.20;5.70;;;1.50;99.90;;;;;;6207276;23;20087;-34
2022/03/19 04:54:04;;;;;;;16.13;5.60;;;1.50;99.90;;;;;;6206934;23;20028;-36
2022/03/19 04:56:31;;;;;;;16.87;5.50;;;1.40;99.90;;;;;;6192543;23;20031;-35
2022/03/19 04:58:58;;;;;;;15.80;5.30;;;1.40;99.90;;;;;;6203885;23;20020;-33
2022/03/19 05:01:26;;;;;;;20.30;6.30;;;1.50;99.90;;;;;;6207445;23;20023;-34
2022/03/19 05:03:51;;;;;;;21.57;6.03;;;1.40;99.90;;;;;;6206175;23;20021;-33
2022/03/19 05:06:17;;;;;;;16.70;5.90;;;1.40;99.90;;;;;;6194559;23;20028;-35
2022/03/19 05:08:43;;;;;;;20.30;6.93;;;1.40;99.90;;;;;;6198055;23;20074;-35
2022/03/19 05:11:15;;;;;;;21.90;6.73;;;1.40;99.90;;;;;;6180574;23;20051;-36
2022/03/19 05:13:43;;;;;;;15.40;5.80;;;1.40;99.90;;;;;;6206096;23;20512;-35
2022/03/19 05:16:09;;;;;;;23.53;6.80;;;1.40;99.90;;;;;;6200536;23;20016;-35
2022/03/19 05:18:35;;;;;;;18.03;5.97;;;1.40;99.90;;;;;;6193797;23;20033;-36
2022/03/19 05:21:01;;;;;;;19.53;6.77;;;1.30;99.90;;;;;;6207530;23;20063;-36
2022/03/19 05:23:26;;;;;;;24.93;6.27;;;1.30;99.90;;;;;;6206827;23;20025;-36
2022/03/19 05:25:52;;;;;;;18.90;6.80;;;1.30;99.90;;;;;;6206248;23;20017;-34
2022/03/19 05:28:19;;;;;;;23.47;6.73;;;1.30;99.90;;;;;;6188100;23;20031;-35
2022/03/19 05:30:45;;;;;;;18.67;6.87;;;1.30;99.90;;;;;;6205757;23;20017;-36
2022/03/19 05:33:13;;;;;;;21.10;7.00;;;1.30;99.90;;;;;;6204651;23;20056;-36
2022/03/19 05:35:39;;;;;;;22.17;6.67;;;1.30;99.90;;;;;;6207843;23;20527;-35
2022/03/19 05:38:05;;;;;;;20.70;7.10;;;1.30;99.90;;;;;;6186176;23;20017;-35
2022/03/19 05:40:31;;;;;;;26.30;7.20;;;1.30;99.90;;;;;;6205901;23;20020;-35
2022/03/19 05:42:57;;;;;;;24.17;7.13;;;1.30;99.90;;;;;;6205558;23;20019;-36
2022/03/19 05:45:23;;;;;;;23.93;7.83;;;1.30;99.90;;;;;;6207796;23;20413;-33
2022/03/19 05:47:50;;;;;;;24.73;7.77;;;1.20;99.90;;;;;;6188495;23;20077;-36
2022/03/19 05:50:16;;;;;;;20.57;7.20;;;1.30;99.90;;;;;;6204933;23;20496;-36
2022/03/19 05:52:42;;;;;;;22.10;7.57;;;1.20;99.90;;;;;;6205645;23;20017;-34
2022/03/19 05:55:08;;;;;;;22.70;8.10;;;1.20;99.90;;;;;;6204251;23;20028;-34
2022/03/19 05:57:34;;;;;;;24.00;8.27;;;1.30;99.90;;;;;;6187909;23;20340;-36
2022/03/19 06:00:00;;;;;;;21.33;7.73;;;1.30;99.90;;;;;;6207038;23;20085;-34
2022/03/19 06:02:26;;;;;;;20.50;8.47;;;1.20;99.90;;;;;;6206989;23;20016;-36
2022/03/19 06:04:52;;;;;;;31.20;9.00;;;1.20;99.90;;;;;;6207099;23;20096;-35
2022/03/19 06:07:18;;;;;;;25.50;9.00;;;1.20;99.90;;;;;;6185960;23;20431;-34
2022/03/19 06:09:44;;;;;;;24.80;9.10;;;1.20;99.90;;;;;;6205618;23;20016;-36
2022/03/19 06:12:10;;;;;;;26.63;9.47;;;1.30;99.90;;;;;;6206812;23;20020;-41
2022/03/19 06:14:36;;;;;;;24.50;8.87;;;1.30;99.90;;;;;;6207373;23;20035;-36
2022/03/19 06:17:02;;;;;;;26.83;10.03;;;1.30;99.90;;;;;;6188561;23;20448;-35
2022/03/19 06:19:28;;;;;;;28.97;10.27;;;1.30;99.90;;;;;;6206138;23;20074;-36
2022/03/19 06:21:53;;;;;;;23.00;9.17;;;1.30;99.90;;;;;;6205964;23;20487;-36
2022/03/19 06:24:21;;;;;;;23.93;9.30;;;1.40;99.90;;;;;;6206843;23;20412;-36
2022/03/19 06:26:47;;;;;;;29.33;10.20;;;1.40;99.90;;;;;;6188432;23;20028;-35
2022/03/19 06:29:12;;;;;;;32.03;11.27;;;1.40;99.90;;;;;;6205830;23;20028;-35
2022/03/19 06:31:38;;;;;;;29.37;10.17;;;1.50;99.90;;;;;;6205761;23;20095;-35
2022/03/19 06:34:04;;;;;;;25.33;10.90;;;1.60;99.90;;;;;;6206264;23;20043;-36
2022/03/19 06:39:14;;;;;;;33.93;11.83;;;1.70;99.90;;;;;;6206851;23;20029;-35
2022/03/19 06:41:40;;;;;;;31.73;12.73;;;1.80;99.90;;;;;;6205655;23;20024;-34
2022/03/19 06:44:05;;;;;;;31.50;12.60;;;1.90;99.90;;;;;;6206035;23;20030;-36
2022/03/19 06:46:31;;;;;;;31.07;13.40;;;1.90;99.90;;;;;;6190308;23;20411;-34
2022/03/19 06:48:57;;;;;;;34.87;14.03;;;2.00;99.90;;;;;;6203845;23;20028;-35
2022/03/19 06:51:23;;;;;;;34.37;14.00;;;2.10;99.90;;;;;;6207149;23;20484;-35
2022/03/19 06:53:49;;;;;;;36.90;13.97;;;2.20;99.90;;;;;;6206758;23;20103;-35
2022/03/19 06:56:16;;;;;;;33.63;13.53;;;2.30;99.90;;;;;;6195818;23;20021;-33
2022/03/19 06:58:42;;;;;;;34.37;14.30;;;2.40;99.90;;;;;;6200829;23;20033;-36
2022/03/19 07:01:17;;;;;;;32.03;14.10;;;2.40;99.90;;;;;;6206543;23;20067;-35
2022/03/19 07:03:46;;;;;;;39.67;14.20;;;2.50;99.90;;;;;;6206854;23;20035;-36
2022/03/19 07:06:15;;;;;;;26.07;13.40;;;2.60;99.90;;;;;;6196673;23;20282;-35
2022/03/19 07:08:41;;;;;;;35.93;14.40;;;2.70;99.90;;;;;;6197640;23;20028;-35
2022/03/19 07:11:07;;;;;;;33.47;13.93;;;2.70;99.90;;;;;;6206468;23;20083;-34
2022/03/19 07:13:33;;;;;;;34.53;13.90;;;2.80;99.90;;;;;;6206355;23;20028;-36
2022/03/19 07:15:59;;;;;;;34.97;13.53;;;2.90;99.90;;;;;;6206753;23;20012;-37
2022/03/19 07:18:25;;;;;;;35.63;13.50;;;3.00;99.90;;;;;;6184771;23;20101;-36
2022/03/19 07:20:50;;;;;;;30.73;12.93;;;3.00;99.90;;;;;;6203827;23;20448;-36
2022/03/19 07:23:16;;;;;;;30.50;12.13;;;3.10;99.90;;;;;;6205391;23;20035;-36
2022/03/19 07:25:43;;;;;;;28.43;11.77;;;3.20;99.90;;;;;;6205407;23;20012;-35
2022/03/19 07:28:20;;;;;;;29.90;11.33;;;3.30;99.90;;;;;;6186956;23;20063;-32
2022/03/19 07:30:46;;;;;;;33.70;11.33;;;3.30;99.90;;;;;;6206576;23;20527;-35
2022/03/19 07:33:13;;;;;;;30.90;11.40;;;3.40;99.90;;;;;;6205862;23;20055;-33
2022/03/19 07:35:40;;;;;;;23.10;10.90;;;3.50;99.90;;;;;;6206802;23;20021;-36
2022/03/19 07:38:06;;;;;;;24.60;11.13;;;3.60;99.90;;;;;;6187109;23;20025;-35
2022/03/19 07:43:19;;;;;;;25.03;10.57;;;3.80;99.90;;;;;;6201427;23;20043;-32
2022/03/19 07:45:45;;;;;;;25.03;10.37;;;3.80;99.90;;;;;;6200621;23;20017;-38
2022/03/19 07:48:11;;;;;;;27.87;10.07;;;3.90;99.90;;;;;;6178500;23;20196;-35
2022/03/19 07:50:38;;;;;;;27.13;9.63;;;4.00;99.90;;;;;;6201375;23;20020;-36
2022/03/19 07:53:05;;;;;;;24.23;9.57;;;4.00;99.90;;;;;;6199485;23;20028;-35
2022/03/19 07:55:31;;;;;;;30.17;9.83;;;4.10;99.90;;;;;;6204138;23;20028;-36
2022/03/19 07:57:57;;;;;;;29.43;9.27;;;4.20;99.90;;;;;;6183041;23;20091;-37
2022/03/19 08:00:22;;;;;;;28.70;9.70;;;4.30;99.90;;;;;;6202806;23;20066;-36
2022/03/19 08:02:48;;;;;;;27.17;9.00;;;4.40;99.90;;;;;;6204667;23;20036;-36
2022/03/19 08:05:14;;;;;;;28.40;9.20;;;4.50;99.90;;;;;;6202386;23;20452;-36
2022/03/19 08:07:40;;;;;;;25.00;8.37;;;4.60;99.90;;;;;;6184734;23;20025;-35
2022/03/19 08:10:10;;;;;;;27.07;8.00;;;4.70;99.90;;;;;;6203807;23;20422;-33
2022/03/19 08:12:36;;;;;;;23.73;8.57;;;4.80;99.90;;;;;;6203051;23;20111;-35
2022/03/19 08:15:03;;;;;;;25.20;8.10;;;4.80;99.90;;;;;;6203056;23;20025;-35
2022/03/19 08:17:29;;;;;;;23.23;7.63;;;4.90;99.90;;;;;;6185739;23;20028;-35
2022/03/19 08:19:57;;;;;;;24.50;8.03;;;5.00;99.90;;;;;;6203460;23;20024;-35
2022/03/19 08:22:24;;;;;;;23.40;8.00;;;5.20;99.90;;;;;;6202272;23;20400;-36
2022/03/19 08:24:50;;;;;;;24.93;7.87;;;5.20;99.90;;;;;;6203189;23;20690;-36
2022/03/19 08:27:16;;;;;;;26.40;7.80;;;5.30;99.90;;;;;;6183428;23;20067;-35
2022/03/19 08:29:41;;;;;;;22.87;7.90;;;5.40;99.90;;;;;;6204287;23;20020;-34
2022/03/19 08:32:08;;;;;;;22.97;7.67;;;5.40;99.90;;;;;;6204747;23;20028;-34
2022/03/19 08:34:34;;;;;;;18.57;6.90;;;5.50;99.90;;;;;;6203484;23;20492;-36
2022/03/19 08:37:00;;;;;;;22.67;7.03;;;5.60;99.90;;;;;;6184379;23;20024;-35
2022/03/19 08:42:11;;;;;;;22.03;7.40;;;5.70;99.90;;;;;;6203315;23;20562;-36
2022/03/19 08:44:36;;;;;;;20.37;6.50;;;5.80;99.90;;;;;;6202195;23;20028;-37
2022/03/19 08:47:02;;;;;;;25.93;7.33;;;5.90;99.90;;;;;;6184679;23;20069;-33
2022/03/19 08:49:28;;;;;;;20.73;6.63;;;5.90;99.90;;;;;;6201343;23;20025;-34
2022/03/19 08:51:54;;;;;;;18.50;5.90;;;6.00;99.90;;;;;;6204121;23;20016;-33
2022/03/19 08:54:20;;;;;;;22.77;6.07;;;6.10;99.90;;;;;;6201942;23;20074;-34
2022/03/19 08:56:49;;;;;;;20.70;5.53;;;6.20;99.90;;;;;;6186827;23;20024;-33
2022/03/19 08:59:17;;;;;;;20.30;5.77;;;6.30;99.90;;;;;;6203750;23;20047;-33
2022/03/19 09:01:44;;;;;;;21.80;5.33;;;6.30;99.90;;;;;;6205182;23;20051;-34
2022/03/19 09:04:11;;;;;;;18.83;5.07;;;6.40;99.90;;;;;;6204420;23;20345;-33
2022/03/19 09:06:38;;;;;;;22.07;5.37;;;6.50;99.90;;;;;;6185166;23;20021;-35
2022/03/19 09:09:04;;;;;;;22.23;5.27;;;6.50;99.90;;;;;;6198962;23;20356;-35
2022/03/19 09:11:32;;;;;;;15.37;4.90;;;6.80;99.90;;;;;;6201705;23;20062;-37
2022/03/19 09:13:58;;;;;;;19.47;5.03;;;6.70;99.90;;;;;;6203565;23;20554;-38
2022/03/19 09:16:25;;;;;;;18.17;4.97;;;6.80;99.90;;;;;;6189002;23;20031;-37
2022/03/19 09:18:52;;;;;;;15.30;4.00;;;6.90;99.90;;;;;;6199237;23;20050;-34
2022/03/19 09:21:18;;;;;;;14.10;3.90;;;6.90;99.90;;;;;;6203570;23;20438;-36
2022/03/19 09:23:45;;;;;;;19.70;4.40;;;7.00;99.90;;;;;;6203008;23;20392;-37
2022/03/19 09:26:14;;;;;;;13.57;3.60;;;7.00;99.90;;;;;;6195118;23;20341;-37
2022/03/19 09:28:40;;;;;;;15.70;3.97;;;7.20;99.90;;;;;;6196483;23;20099;-36
2022/03/19 09:31:06;;;;;;;14.97;3.53;;;7.20;99.90;;;;;;6202168;23;20052;-36
2022/03/19 09:33:32;;;;;;;16.70;3.77;;;7.30;99.90;;;;;;6201841;23;20452;-36
2022/03/19 09:36:00;;;;;;;15.93;3.17;;;7.40;99.90;;;;;;6203942;23;20024;-37
2022/03/19 09:38:27;;;;;;;16.73;3.77;;;7.50;99.90;;;;;;6182900;23;20029;-35
2022/03/19 09:40:55;;;;;;;15.00;3.60;;;7.50;99.90;;;;;;6204239;23;20021;-34
2022/03/19 09:43:28;;;;;;;13.00;3.60;;;7.60;99.90;;;;;;6203481;23;20035;-37
2022/03/19 09:45:54;;;;;;;14.20;3.73;;;7.80;99.90;;;;;;6205250;23;20024;-37
2022/03/19 09:48:20;;;;;;;14.57;3.80;;;7.70;99.90;;;;;;6182506;23;20385;-37
2022/03/19 09:50:56;;;;;;;13.17;3.13;;;7.80;99.90;;;;;;6204657;23;20539;-38
2022/03/19 09:53:23;;;;;;;16.13;3.77;;;7.90;99.90;;;;;;6200567;23;20491;-37
2022/03/19 09:55:50;;;;;;;15.83;3.70;;;7.90;99.90;;;;;;6204932;23;20017;-38
2022/03/19 09:58:16;;;;;;;15.63;3.97;;;8.00;99.90;;;;;;6184764;23;20099;-37
2022/03/19 10:00:43;;;;;;;10.73;3.57;;;8.10;99.90;;;;;;6204622;23;20016;-37
2022/03/19 10:03:12;;;;;;;10.63;3.43;;;8.10;99.90;;;;;;6201868;23;20394;-36
2022/03/19 10:08:39;;;;;;;12.77;3.73;;;8.30;99.90;;;;;;6183888;23;20408;-35
2022/03/19 10:11:15;;;;;;;13.07;3.27;;;8.40;99.90;;;;;;6204227;23;20087;-34
2022/03/19 10:13:47;;;;;;;14.83;3.80;;;8.40;99.90;;;;;;6203574;23;20047;-32
2022/03/19 10:16:24;;;;;;;14.95;3.50;;;8.50;99.90;;;;;;6191133;23;20458;-38
2022/03/19 10:19:08;;;;;;;13.67;3.43;;;8.60;99.90;;;;;;6199416;23;20029;-38
2022/03/19 10:21:40;;;;;;;17.23;4.10;;;8.70;99.90;;;;;;6201718;23;20318;-36
2022/03/19 10:24:27;;;;;;;12.77;3.40;;;8.80;99.90;;;;;;6202592;23;20032;-37
2022/03/19 10:26:53;;;;;;;15.30;3.50;;;8.80;99.90;;;;;;6184740;23;20024;-38
2022/03/19 10:29:27;;;;;;;15.27;3.90;;;8.90;99.90;;;;;;6200437;23;20147;-38
2022/03/19 10:31:59;;;;;;;9.37;3.33;;;9.00;99.90;;;;;;6204322;23;20024;-37
2022/03/19 10:34:25;;;;;;;17.13;3.57;;;9.10;99.90;;;;;;6203561;23;20020;-35
2022/03/19 10:36:50;;;;;;;10.80;3.93;;;9.10;99.90;;;;;;6184376;23;20486;-36
2022/03/19 10:39:21;;;;;;;9.80;3.27;;;9.20;99.90;;;;;;6203875;23;20028;-38
2022/03/19 10:41:50;;;;;;;15.30;3.80;;;9.30;99.90;;;;;;6203450;23;20024;-33
2022/03/19 10:44:27;;;;;;;17.67;4.27;;;9.40;99.90;;;;;;6203531;23;20067;-35
2022/03/19 10:46:58;;;;;;;11.00;3.70;;;9.40;99.90;;;;;;6184406;23;20519;-34
2022/03/19 10:49:27;;;;;;;7.93;2.47;;;9.60;99.90;;;;;;6200002;23;20025;-34
2022/03/19 10:51:56;;;;;;;9.77;3.03;;;9.60;99.90;;;;;;6202866;23;20019;-35
2022/03/19 10:54:22;;;;;;;14.03;3.37;;;9.50;99.90;;;;;;6201775;23;20407;-34
2022/03/19 10:56:49;;;;;;;11.07;3.17;;;9.80;99.90;;;;;;6184521;23;20020;-35
2022/03/19 10:59:15;;;;;;;9.93;3.13;;;9.70;99.90;;;;;;6203099;23;20498;-35
2022/03/19 11:01:41;;;;;;;9.47;3.03;;;9.80;99.90;;;;;;6205278;23;20090;-33
2022/03/19 11:04:09;;;;;;;8.07;2.60;;;9.90;99.90;;;;;;6205723;23;20031;-32
2022/03/19 11:06:43;;;;;;;7.53;2.47;;;9.90;99.90;;;;;;6188612;23;20013;-35
2022/03/19 11:09:15;;;;;;;12.63;2.50;;;10.00;99.90;;;;;;6204957;23;20020;-34
2022/03/19 11:11:53;;;;;;;11.98;3.03;;;10.10;99.90;;;;;;6201767;23;20016;-33
2022/03/19 11:14:24;;;;;;;6.23;2.23;;;10.10;99.90;;;;;;6204513;23;20025;-34
2022/03/19 11:19:48;;;;;;;7.63;2.17;;;10.20;99.90;;;;;;6204892;23;20290;-32
2022/03/19 11:22:14;;;;;;;5.67;2.03;;;10.20;99.90;;;;;;6205185;23;20028;-36
2022/03/19 11:25:09;;;;;;;8.07;2.50;;;10.40;99.90;;;;;;6140022;23;20021;-36
2022/03/19 11:27:41;;;;;;;7.20;2.20;;;10.50;99.90;;;;;;6185201;23;20483;-35
2022/03/19 11:30:18;;;;;;;7.83;2.47;;;10.50;99.90;;;;;;6205744;23;20379;-36
2022/03/19 11:33:09;;;;;;;9.40;2.40;;;10.50;99.90;;;;;;6205572;23;20020;-36
2022/03/19 11:35:38;;;;;;;7.40;2.50;;;10.50;99.90;;;;;;6206356;23;20024;-34
2022/03/19 11:38:17;;;;;;;7.80;2.50;;;10.60;99.90;;;;;;6184427;23;20104;-32
2022/03/19 11:40:47;;;;;;;11.13;2.00;;;10.60;99.90;;;;;;6205819;23;20398;-35
2022/03/19 11:43:26;;;;;;;6.33;2.20;;;10.70;99.90;;;;;;6202967;23;20024;-35
2022/03/19 11:46:05;;;;;;;10.40;2.03;;;10.80;99.90;;;;;;6204765;23;20025;-36
2022/03/19 11:48:41;;;;;;;9.47;2.20;;;10.90;99.90;;;;;;6189203;23;20329;-35
2022/03/19 11:51:24;;;;;;;6.37;1.63;;;10.90;99.90;;;;;;6157945;23;20092;-37
2022/03/19 11:53:58;;;;;;;6.53;1.50;;;11.00;99.90;;;;;;6033945;23;20045;-37
2022/03/19 11:56:46;;;;;;;4.73;1.13;;;11.10;99.90;;;;;;6135017;23;20418;-37
2022/03/19 11:59:24;;;;;;;3.50;1.30;;;11.20;99.90;;;;;;6172242;23;20025;-35
2022/03/19 12:02:05;;;;;;;5.83;2.33;;;11.30;99.90;;;;;;6206241;23;20027;-36
2022/03/19 12:04:48;;;;;;;6.18;1.70;;;11.30;99.90;;;;;;6205193;23;20024;-36
2022/03/19 12:07:42;;;;;;;8.83;2.23;;;11.40;99.90;;;;;;6186241;23;20020;-36
2022/03/19 12:10:11;;;;;;;6.03;1.80;;;11.50;99.90;;;;;;6205574;23;20386;-36
2022/03/19 12:12:36;;;;;;;6.05;1.90;;;11.40;99.90;;;;;;6204919;23;20017;-36
2022/03/19 12:15:33;;;;;;;4.47;1.70;;;11.50;99.90;;;;;;6203388;23;20471;-36
2022/03/19 12:18:36;;;;;;;7.38;2.10;;;11.50;99.90;;;;;;6186396;23;20039;-36
2022/03/19 12:21:05;;;;;;;6.30;1.75;;;11.40;99.90;;;;;;6205237;23;20107;-34
2022/03/19 12:23:53;;;;;;;6.13;1.60;;;11.40;99.90;;;;;;6204385;23;20048;-36
2022/03/19 12:26:24;;;;;;;6.13;1.98;;;11.40;99.90;;;;;;6190875;23;20448;-36
2022/03/19 12:29:04;;;;;;;5.57;1.52;;;11.50;99.90;;;;;;6201096;23;20057;-36
2022/03/19 12:31:32;;;;;;;5.47;1.70;;;11.50;99.90;;;;;;6205371;23;20017;-36
2022/03/19 12:33:58;;;;;;;5.20;1.75;;;11.50;99.90;;;;;;6204865;23;20492;-37
2022/03/19 12:36:24;;;;;;;5.50;1.70;;;11.60;99.90;;;;;;6190544;23;20190;-35
2022/03/19 12:38:52;;;;;;;5.63;1.77;;;11.60;99.90;;;;;;6201526;23;20024;-35
2022/03/19 12:41:23;;;;;;;5.72;1.20;;;11.60;99.90;;;;;;6207525;23;20126;-36
2022/03/19 12:43:50;;;;;;;4.53;1.27;;;11.70;99.90;;;;;;6207832;23;20029;-36
2022/03/19 12:46:28;;;;;;;5.75;1.50;;;11.70;99.90;;;;;;6193412;23;20031;-36
2022/03/19 12:49:10;;;;;;;4.38;1.30;;;11.80;99.90;;;;;;6202945;23;20484;-36
2022/03/19 12:51:45;;;;;;;5.57;1.67;;;11.80;99.90;;;;;;6207594;23;20507;-37
2022/03/19 12:54:18;;;;;;;4.35;1.27;;;11.90;99.90;;;;;;6204515;23;20091;-36
2022/03/19 12:56:44;;;;;;;6.25;1.55;;;11.90;99.90;;;;;;6186999;23;20024;-36
2022/03/19 12:59:17;;;;;;;4.93;1.88;;;12.00;99.90;;;;;;6179574;23;20024;-35
2022/03/19 13:01:43;;;;;;;3.45;1.33;;;12.10;99.90;;;;;;6205901;23;20020;-37
2022/03/19 13:04:08;;;;;;;5.53;1.30;;;12.10;99.90;;;;;;6206619;23;20031;-36
2022/03/19 13:06:41;;;;;;;4.82;1.30;;;12.00;99.90;;;;;;6190204;23;20021;-36
2022/03/19 13:09:08;;;;;;;3.70;1.10;;;12.10;99.90;;;;;;6201717;23;20025;-36